createdAt,value
2019-03-10T00:00:13.099Z,9.70
2019-03-10T00:02:40.355Z,9.70
2019-03-10T00:05:07.636Z,9.70
2019-03-10T00:07:34.973Z,9.70
2019-03-10T00:10:02.872Z,9.60
2019-03-10T00:12:30.121Z,9.60
2019-03-10T00:14:57.350Z,9.60
2019-03-10T00:17:24.613Z,9.50
2019-03-10T00:19:51.870Z,9.50
2019-03-10T00:22:19.035Z,9.50
2019-03-10T00:24:46.271Z,9.50
2019-03-10T00:27:13.549Z,9.50
2019-03-10T00:29:40.889Z,9.40
2019-03-10T00:32:08.125Z,9.40
2019-03-10T00:34:35.345Z,9.50
2019-03-10T00:37:02.537Z,9.40
2019-03-10T00:40:12.883Z,9.40
2019-03-10T00:43:17.126Z,9.30
2019-03-10T00:46:24.408Z,9.30
2019-03-10T00:49:16.210Z,9.30
2019-03-10T00:52:03.441Z,9.30
2019-03-10T00:54:30.620Z,9.20
2019-03-10T00:56:57.844Z,9.20
2019-03-10T00:59:25.166Z,9.20
2019-03-10T01:01:52.412Z,9.20
2019-03-10T01:04:19.745Z,9.20
2019-03-10T01:06:46.933Z,9.30
2019-03-10T01:09:14.092Z,9.20
2019-03-10T01:11:41.434Z,9.10
2019-03-10T01:14:08.708Z,9.00
2019-03-10T01:16:36.044Z,9.00
2019-03-10T01:19:03.519Z,8.90
2019-03-10T01:21:31.988Z,8.80
2019-03-10T01:23:59.218Z,8.80
2019-03-10T01:26:26.430Z,8.70
2019-03-10T01:28:53.688Z,8.80
2019-03-10T01:32:04.391Z,8.70
2019-03-10T01:34:58.282Z,8.70
2019-03-10T01:37:25.442Z,8.80
2019-03-10T01:39:52.708Z,8.90
2019-03-10T01:42:19.818Z,8.90
2019-03-10T01:44:47.076Z,9.00
2019-03-10T01:47:14.210Z,9.00
2019-03-10T01:49:41.464Z,9.00
2019-03-10T01:52:08.614Z,8.90
2019-03-10T01:54:35.965Z,9.00
2019-03-10T01:57:03.295Z,9.00
2019-03-10T01:59:30.473Z,9.00
2019-03-10T02:01:57.714Z,9.00
2019-03-10T02:04:24.835Z,9.00
2019-03-10T02:06:52.099Z,9.00
2019-03-10T02:09:19.466Z,9.00
2019-03-10T02:11:46.599Z,8.90
2019-03-10T02:14:13.866Z,8.90
2019-03-10T02:16:41.126Z,8.80
2019-03-10T02:19:08.464Z,8.70
2019-03-10T02:21:35.679Z,8.70
2019-03-10T02:24:02.945Z,8.70
2019-03-10T02:26:30.157Z,8.60
2019-03-10T02:28:57.297Z,8.60
2019-03-10T02:31:24.540Z,8.50
2019-03-10T02:33:51.876Z,8.60
2019-03-10T02:36:19.127Z,8.60
2019-03-10T02:38:46.389Z,8.50
2019-03-10T02:41:13.616Z,8.60
2019-03-10T02:43:40.904Z,8.60
2019-03-10T02:46:08.180Z,8.60
2019-03-10T02:48:35.435Z,8.70
2019-03-10T02:51:02.769Z,8.60
2019-03-10T02:53:30.005Z,8.60
2019-03-10T02:55:57.246Z,8.60
2019-03-10T02:58:24.494Z,8.60
2019-03-10T03:00:51.661Z,8.60
2019-03-10T03:03:19.040Z,8.60
2019-03-10T03:05:46.392Z,8.60
2019-03-10T03:08:16.577Z,8.70
2019-03-10T03:10:42.833Z,8.70
2019-03-10T03:13:10.015Z,8.70
2019-03-10T03:15:37.274Z,8.80
2019-03-10T03:18:04.713Z,8.90
2019-03-10T03:20:32.066Z,8.90
2019-03-10T03:22:59.420Z,8.90
2019-03-10T03:25:26.654Z,9.00
2019-03-10T03:27:53.810Z,8.90
2019-03-10T03:30:21.121Z,9.00
2019-03-10T03:32:48.506Z,9.00
2019-03-10T03:35:46.019Z,9.10
2019-03-10T03:38:13.369Z,9.20
2019-03-10T03:40:42.418Z,9.30
2019-03-10T03:43:09.666Z,9.40
2019-03-10T03:45:36.816Z,9.50
2019-03-10T03:48:04.107Z,9.50
2019-03-10T03:50:31.420Z,9.50
2019-03-10T03:52:58.571Z,9.30
2019-03-10T03:55:25.996Z,9.20
2019-03-10T03:57:53.250Z,9.00
2019-03-10T04:00:20.536Z,8.80
2019-03-10T04:02:47.874Z,8.60
2019-03-10T04:05:15.164Z,8.50
2019-03-10T04:07:42.322Z,8.40
2019-03-10T04:10:09.544Z,8.40
2019-03-10T04:12:36.786Z,8.30
2019-03-10T04:15:03.997Z,8.30
2019-03-10T04:17:31.230Z,8.20
2019-03-10T04:19:58.562Z,8.20
2019-03-10T04:22:25.822Z,8.20
2019-03-10T04:24:53.090Z,8.20
2019-03-10T04:27:20.237Z,8.10
2019-03-10T04:29:47.460Z,8.10
2019-03-10T04:32:14.730Z,8.10
2019-03-10T04:34:42.091Z,8.10
2019-03-10T04:37:09.317Z,8.10
2019-03-10T04:39:36.473Z,8.10
2019-03-10T04:42:03.636Z,8.00
2019-03-10T04:44:30.868Z,8.00
2019-03-10T04:46:58.114Z,7.90
2019-03-10T04:49:25.284Z,7.90
2019-03-10T04:51:52.634Z,7.90
2019-03-10T04:54:36.331Z,7.90
2019-03-10T04:57:09.390Z,7.80
2019-03-10T04:59:36.544Z,7.80
2019-03-10T05:02:03.794Z,7.70
2019-03-10T05:04:31.772Z,7.70
2019-03-10T05:06:59.022Z,7.70
2019-03-10T05:09:26.240Z,7.70
2019-03-10T05:11:53.418Z,7.70
2019-03-10T05:14:20.694Z,7.60
2019-03-10T05:16:48.022Z,7.50
2019-03-10T05:19:15.250Z,7.50
2019-03-10T05:21:42.421Z,7.40
2019-03-10T05:24:13.955Z,7.40
2019-03-10T05:26:41.249Z,7.40
2019-03-10T05:29:08.476Z,7.40
2019-03-10T05:31:35.738Z,7.40
2019-03-10T05:34:02.983Z,7.40
2019-03-10T05:36:30.204Z,7.40
2019-03-10T05:38:57.381Z,7.30
2019-03-10T05:41:24.651Z,7.40
2019-03-10T05:43:51.962Z,7.30
2019-03-10T05:46:19.182Z,7.30
2019-03-10T05:48:46.440Z,7.30
2019-03-10T05:51:13.673Z,7.30
2019-03-10T05:53:40.930Z,7.30
2019-03-10T05:56:08.214Z,7.30
2019-03-10T05:58:35.564Z,7.30
2019-03-10T06:01:02.935Z,7.30
2019-03-10T06:03:30.218Z,7.30
2019-03-10T06:05:57.433Z,7.30
2019-03-10T06:08:24.593Z,7.40
2019-03-10T06:10:51.844Z,7.40
2019-03-10T06:13:22.168Z,7.40
2019-03-10T06:15:49.447Z,7.40
2019-03-10T06:18:16.670Z,7.30
2019-03-10T06:20:43.961Z,7.20
2019-03-10T06:23:11.190Z,7.10
2019-03-10T06:25:38.418Z,7.20
2019-03-10T06:28:05.606Z,7.10
2019-03-10T06:30:32.862Z,7.20
2019-03-10T06:32:59.988Z,7.20
2019-03-10T06:35:27.140Z,7.20
2019-03-10T06:37:54.384Z,7.20
2019-03-10T06:40:31.355Z,7.20
2019-03-10T06:42:50.700Z,7.20
2019-03-10T06:45:17.897Z,7.30
2019-03-10T06:47:45.165Z,7.30
2019-03-10T06:50:12.626Z,7.30
2019-03-10T06:52:39.876Z,7.30
2019-03-10T06:55:07.134Z,7.30
2019-03-10T06:57:34.434Z,7.40
2019-03-10T07:00:01.728Z,7.40
2019-03-10T07:02:28.900Z,7.40
2019-03-10T07:04:56.161Z,7.40
2019-03-10T07:07:23.402Z,7.40
2019-03-10T07:09:50.684Z,7.40
2019-03-10T07:12:17.936Z,7.50
2019-03-10T07:17:36.993Z,7.60
2019-03-10T07:20:06.514Z,7.70
2019-03-10T07:22:33.862Z,7.70
2019-03-10T07:25:01.150Z,7.70
2019-03-10T07:27:36.699Z,7.70
2019-03-10T07:30:23.931Z,7.80
2019-03-10T07:33:09.180Z,7.70
2019-03-10T07:35:44.089Z,7.80
2019-03-10T07:38:26.952Z,7.90
2019-03-10T07:41:13.721Z,8.00
2019-03-10T07:44:00.460Z,8.10
2019-03-10T07:46:44.448Z,8.20
2019-03-10T07:49:36.859Z,8.20
2019-03-10T07:52:22.182Z,8.40
2019-03-10T07:55:23.847Z,8.40
2019-03-10T07:57:59.763Z,8.50
2019-03-10T08:00:38.799Z,8.70
2019-03-10T08:03:31.819Z,8.80
2019-03-10T08:06:30.287Z,8.90
2019-03-10T08:09:08.028Z,9.10
2019-03-10T08:12:00.887Z,9.30
2019-03-10T08:14:35.461Z,9.60
2019-03-10T08:17:24.419Z,9.80
2019-03-10T08:20:14.095Z,10.00
2019-03-10T08:22:49.765Z,10.30
2019-03-10T08:25:38.273Z,10.60
2019-03-10T08:28:23.744Z,10.70
2019-03-10T08:31:04.026Z,11.00
2019-03-10T08:33:49.463Z,11.10
2019-03-10T08:36:42.101Z,11.20
2019-03-10T08:39:19.666Z,11.30
2019-03-10T08:41:56.032Z,11.30
2019-03-10T08:44:33.913Z,11.40
2019-03-10T08:47:26.477Z,11.50
2019-03-10T08:50:16.035Z,11.50
2019-03-10T08:52:59.835Z,11.50
2019-03-10T08:55:43.528Z,11.50
2019-03-10T08:58:20.156Z,11.50
2019-03-10T09:01:05.217Z,11.50
2019-03-10T09:03:57.783Z,11.50
2019-03-10T09:06:50.819Z,11.60
2019-03-10T09:09:24.769Z,11.60
2019-03-10T09:12:04.733Z,11.60
2019-03-10T09:14:57.656Z,11.60
2019-03-10T09:17:49.181Z,11.60
2019-03-10T09:20:34.193Z,11.60
2019-03-10T09:23:17.538Z,11.70
2019-03-10T09:26:01.429Z,11.70
2019-03-10T09:29:00.132Z,11.70
2019-03-10T09:31:46.941Z,11.70
2019-03-10T09:34:49.031Z,11.70
2019-03-10T09:37:44.796Z,11.70
2019-03-10T09:40:43.746Z,11.70
2019-03-10T09:43:29.020Z,11.70
2019-03-10T09:46:12.357Z,11.80
2019-03-10T09:48:56.405Z,11.70
2019-03-10T09:51:37.292Z,11.80
2019-03-10T09:54:22.497Z,11.70
2019-03-10T09:57:17.863Z,11.60
2019-03-10T09:59:53.826Z,11.70
2019-03-10T10:02:40.640Z,11.70
2019-03-10T10:05:26.920Z,11.70
2019-03-10T10:08:07.921Z,11.70
2019-03-10T10:10:52.642Z,11.60
2019-03-10T10:13:54.454Z,11.40
2019-03-10T10:16:30.661Z,11.30
2019-03-10T10:19:20.226Z,11.30
2019-03-10T10:22:09.762Z,11.30
2019-03-10T10:25:00.932Z,11.20
2019-03-10T10:27:37.911Z,11.10
2019-03-10T10:30:27.416Z,11.10
2019-03-10T10:33:19.120Z,11.00
2019-03-10T10:36:20.870Z,11.10
2019-03-10T10:39:22.518Z,11.10
2019-03-10T10:42:14.514Z,11.10
2019-03-10T10:44:48.250Z,10.90
2019-03-10T10:47:40.703Z,10.90
2019-03-10T10:50:15.420Z,10.90
2019-03-10T10:53:21.519Z,10.80
2019-03-10T10:56:03.345Z,10.60
2019-03-10T10:58:40.030Z,10.60
2019-03-10T11:01:32.625Z,10.60
2019-03-10T11:04:12.771Z,10.70
2019-03-10T11:07:02.334Z,10.80
2019-03-10T11:09:38.277Z,11.00
2019-03-10T11:12:21.873Z,11.20
2019-03-10T11:15:08.656Z,11.30
2019-03-10T11:18:08.879Z,11.30
2019-03-10T11:20:43.242Z,11.60
2019-03-10T11:23:28.888Z,12.00
2019-03-10T11:26:21.284Z,12.10
2019-03-10T11:29:08.083Z,11.90
2019-03-10T11:31:54.049Z,11.50
2019-03-10T11:34:33.480Z,11.20
2019-03-10T11:37:15.311Z,11.40
2019-03-10T11:39:59.146Z,11.90
2019-03-10T11:42:35.045Z,12.40
2019-03-10T11:45:18.018Z,12.60
2019-03-10T11:48:10.303Z,12.70
2019-03-10T11:51:01.230Z,12.50
2019-03-10T11:53:40.193Z,12.40
2019-03-10T11:56:19.586Z,12.70
2019-03-10T11:58:51.874Z,13.00
2019-03-10T12:01:29.842Z,13.30
2019-03-10T12:04:03.852Z,13.40
2019-03-10T12:06:53.232Z,13.60
2019-03-10T12:09:23.038Z,14.00
2019-03-10T12:11:50.504Z,14.20
2019-03-10T12:14:17.779Z,14.00
2019-03-10T12:16:45.058Z,13.60
2019-03-10T12:19:12.330Z,13.20
2019-03-10T12:21:39.498Z,13.10
2019-03-10T12:24:06.784Z,13.30
2019-03-10T12:26:33.961Z,13.20
2019-03-10T12:29:01.110Z,13.30
2019-03-10T12:31:28.426Z,13.80
2019-03-10T12:33:55.662Z,14.10
2019-03-10T12:36:23.050Z,15.10
2019-03-10T12:38:50.349Z,16.20
2019-03-10T12:41:17.640Z,16.00
2019-03-10T12:43:45.047Z,17.10
2019-03-10T12:46:12.413Z,17.30
2019-03-10T12:48:39.653Z,16.70
2019-03-10T12:51:07.024Z,16.50
2019-03-10T12:53:34.372Z,16.30
2019-03-10T12:56:01.733Z,15.60
2019-03-10T12:58:29.003Z,15.30
2019-03-10T13:01:05.717Z,15.30
2019-03-10T13:03:25.507Z,15.30
2019-03-10T13:05:52.779Z,15.10
2019-03-10T13:08:20.080Z,15.00
2019-03-10T13:10:47.356Z,14.60
2019-03-10T13:13:14.523Z,14.80
2019-03-10T13:15:41.791Z,14.90
2019-03-10T13:18:09.061Z,14.70
2019-03-10T13:20:36.303Z,14.50
2019-03-10T13:23:03.407Z,14.50
2019-03-10T13:25:30.690Z,14.80
2019-03-10T13:27:58.016Z,14.80
2019-03-10T13:30:25.248Z,15.20
2019-03-10T13:32:52.684Z,15.50
2019-03-10T13:35:20.046Z,15.30
2019-03-10T13:37:47.270Z,15.30
2019-03-10T13:40:14.842Z,15.50
2019-03-10T13:42:42.139Z,15.10
2019-03-10T13:45:09.624Z,15.10
2019-03-10T13:47:36.864Z,14.90
2019-03-10T13:50:05.069Z,14.90
2019-03-10T13:52:32.311Z,14.90
2019-03-10T13:54:59.568Z,15.00
2019-03-10T13:57:26.822Z,15.10
2019-03-10T13:59:54.085Z,15.20
2019-03-10T14:02:21.393Z,15.20
2019-03-10T14:04:48.834Z,15.20
2019-03-10T14:07:17.260Z,15.10
2019-03-10T14:09:44.465Z,15.40
2019-03-10T14:12:11.718Z,14.90
2019-03-10T14:14:39.038Z,14.60
2019-03-10T14:17:06.286Z,14.50
2019-03-10T14:19:33.641Z,14.60
2019-03-10T14:22:00.879Z,15.00
2019-03-10T14:24:28.205Z,14.70
2019-03-10T14:26:55.485Z,14.60
2019-03-10T14:29:22.800Z,14.40
2019-03-10T14:31:50.115Z,14.30
2019-03-10T14:34:19.191Z,14.40
2019-03-10T14:36:46.508Z,14.20
2019-03-10T14:39:13.655Z,14.40
2019-03-10T14:41:40.872Z,14.70
2019-03-10T14:44:08.239Z,14.60
2019-03-10T14:46:35.463Z,14.70
2019-03-10T14:49:02.936Z,14.70
2019-03-10T14:51:30.223Z,14.60
2019-03-10T14:53:57.452Z,14.70
2019-03-10T14:56:24.826Z,14.60
2019-03-10T14:58:51.993Z,14.30
2019-03-10T15:01:19.108Z,14.30
2019-03-10T15:03:46.261Z,14.40
2019-03-10T15:06:13.606Z,14.30
2019-03-10T15:08:40.805Z,14.50
2019-03-10T15:11:08.123Z,14.20
2019-03-10T15:13:35.411Z,13.90
2019-03-10T15:16:02.680Z,13.80
2019-03-10T15:18:30.015Z,13.90
2019-03-10T15:20:57.278Z,14.00
2019-03-10T15:23:24.555Z,14.00
2019-03-10T15:25:51.820Z,14.10
2019-03-10T15:28:19.133Z,13.80
2019-03-10T15:30:46.256Z,13.60
2019-03-10T15:33:13.530Z,13.70
2019-03-10T15:35:40.774Z,13.90
2019-03-10T15:38:08.055Z,14.00
2019-03-10T15:40:35.235Z,13.80
2019-03-10T15:43:02.570Z,13.50
2019-03-10T15:45:29.734Z,13.10
2019-03-10T15:47:56.991Z,13.00
2019-03-10T15:50:24.403Z,12.80
2019-03-10T15:52:51.921Z,12.80
2019-03-10T15:55:19.186Z,12.60
2019-03-10T15:57:50.563Z,12.60
2019-03-10T16:00:16.634Z,12.60
2019-03-10T16:02:43.758Z,12.50
2019-03-10T16:05:11.161Z,12.30
2019-03-10T16:07:38.284Z,12.10
2019-03-10T16:10:05.993Z,12.00
2019-03-10T16:12:33.266Z,11.80
2019-03-10T16:15:00.562Z,11.60
2019-03-10T16:17:27.816Z,11.40
2019-03-10T16:19:55.156Z,11.20
2019-03-10T16:22:22.404Z,11.10
2019-03-10T16:24:49.679Z,11.10
2019-03-10T16:27:16.953Z,11.20
2019-03-10T16:29:44.135Z,11.10
2019-03-10T16:32:11.278Z,11.10
2019-03-10T16:34:38.507Z,11.10
2019-03-10T16:37:05.779Z,11.20
2019-03-10T16:39:32.964Z,11.20
2019-03-10T16:42:00.528Z,11.20
2019-03-10T16:44:27.787Z,11.20
2019-03-10T16:46:55.088Z,11.20
2019-03-10T16:49:22.420Z,11.30
2019-03-10T16:51:49.894Z,11.40
2019-03-10T16:54:17.136Z,11.30
2019-03-10T16:56:44.304Z,11.20
2019-03-10T16:59:11.585Z,11.10
2019-03-10T17:01:38.961Z,11.00
2019-03-10T17:04:06.154Z,10.90
2019-03-10T17:06:33.475Z,10.80
2019-03-10T17:09:04.822Z,10.80
2019-03-10T17:11:32.090Z,10.70
2019-03-10T17:14:03.265Z,10.60
2019-03-10T17:16:30.517Z,10.60
2019-03-10T17:18:57.614Z,10.60
2019-03-10T17:21:25.030Z,10.50
2019-03-10T17:23:52.285Z,10.50
2019-03-10T17:26:19.591Z,10.60
2019-03-10T17:28:46.839Z,10.90
2019-03-10T17:31:14.038Z,10.90
2019-03-10T17:33:41.730Z,10.90
2019-03-10T17:36:09.166Z,10.70
2019-03-10T17:38:36.393Z,10.40
2019-03-10T17:41:03.557Z,10.10
2019-03-10T17:43:30.798Z,10.00
2019-03-10T17:45:58.050Z,9.90
2019-03-10T17:48:25.297Z,10.00
2019-03-10T17:50:52.649Z,9.80
2019-03-10T17:53:19.909Z,9.70
2019-03-10T17:55:47.125Z,9.80
2019-03-10T17:58:14.418Z,10.10
2019-03-10T18:00:41.797Z,10.00
2019-03-10T18:03:09.194Z,10.00
2019-03-10T18:05:36.461Z,10.10
2019-03-10T18:08:04.094Z,10.10
2019-03-10T18:10:31.235Z,10.00
2019-03-10T18:12:58.431Z,10.00
2019-03-10T18:15:27.419Z,10.00
2019-03-10T18:17:54.809Z,9.90
2019-03-10T18:20:22.283Z,9.90
2019-03-10T18:22:49.559Z,9.90
2019-03-10T18:25:16.896Z,9.70
2019-03-10T18:27:44.194Z,9.70
2019-03-10T18:30:13.867Z,9.60
2019-03-10T18:32:41.154Z,9.60
2019-03-10T18:35:08.510Z,9.60
2019-03-10T18:37:35.882Z,9.40
2019-03-10T18:40:03.913Z,9.40
2019-03-10T18:42:31.175Z,9.40
2019-03-10T18:44:58.329Z,9.30
2019-03-10T18:47:25.773Z,9.30
2019-03-10T18:49:55.250Z,9.10
2019-03-10T18:52:22.258Z,9.20
2019-03-10T18:54:49.776Z,9.20
2019-03-10T18:57:17.111Z,9.20
2019-03-10T18:59:44.430Z,9.10
2019-03-10T19:02:11.823Z,9.10
2019-03-10T19:04:39.018Z,9.00
2019-03-10T19:07:06.193Z,9.10
2019-03-10T19:09:33.391Z,9.10
2019-03-10T19:12:00.679Z,9.00
2019-03-10T19:14:28.116Z,8.90
2019-03-10T19:16:55.417Z,8.80
2019-03-10T19:19:22.802Z,8.80
2019-03-10T19:21:50.178Z,8.80
2019-03-10T19:24:17.384Z,8.80
2019-03-10T19:26:44.884Z,8.80
2019-03-10T19:29:12.231Z,8.70
2019-03-10T19:31:39.563Z,8.50
2019-03-10T19:34:06.906Z,8.40
2019-03-10T19:36:34.319Z,8.50
2019-03-10T19:39:01.744Z,8.40
2019-03-10T19:41:29.033Z,8.40
2019-03-10T19:43:56.264Z,8.50
2019-03-10T19:46:23.541Z,8.20
2019-03-10T19:48:50.795Z,8.00
2019-03-10T19:51:18.096Z,8.30
2019-03-10T19:53:45.730Z,8.30
2019-03-10T19:56:13.275Z,8.20
2019-03-10T19:58:40.638Z,8.20
2019-03-10T20:01:08.199Z,8.20
2019-03-10T20:03:35.938Z,8.20
2019-03-10T20:06:03.395Z,8.20
2019-03-10T20:08:30.914Z,8.10
2019-03-10T20:10:58.199Z,8.10
2019-03-10T20:13:25.909Z,8.00
2019-03-10T20:15:53.340Z,8.00
2019-03-10T20:18:20.909Z,7.90
2019-03-10T20:20:48.305Z,7.80
2019-03-10T20:23:15.963Z,7.80
2019-03-10T20:25:43.338Z,7.80
2019-03-10T20:28:13.553Z,7.70
2019-03-10T20:30:40.932Z,7.60
2019-03-10T20:33:08.557Z,7.50
2019-03-10T20:35:35.891Z,7.50
2019-03-10T20:38:03.280Z,7.60
2019-03-10T20:40:30.533Z,7.90
2019-03-10T20:42:57.949Z,7.90
2019-03-10T20:45:25.241Z,8.10
2019-03-10T20:47:52.510Z,8.20
2019-03-10T20:50:19.869Z,8.10
2019-03-10T20:52:47.309Z,8.10
2019-03-10T20:55:14.647Z,8.30
2019-03-10T20:57:41.993Z,8.40
2019-03-10T21:00:14.202Z,8.50
2019-03-10T21:02:41.529Z,8.50
2019-03-10T21:05:08.988Z,8.70
2019-03-10T21:07:36.365Z,8.70
2019-03-10T21:10:04.149Z,8.70
2019-03-10T21:12:39.848Z,8.70
2019-03-10T21:15:00.754Z,8.70
2019-03-10T21:17:27.947Z,8.60
2019-03-10T21:19:55.515Z,8.70
2019-03-10T21:22:23.826Z,8.60
2019-03-10T21:24:51.187Z,8.50
2019-03-10T21:27:18.575Z,8.30
2019-03-10T21:29:45.796Z,8.10
2019-03-10T21:32:13.108Z,8.00
2019-03-10T21:34:40.255Z,7.90
2019-03-10T21:37:07.531Z,7.90
2019-03-10T21:39:35.143Z,7.80
2019-03-10T21:42:02.605Z,7.80
2019-03-10T21:44:29.927Z,7.70
2019-03-10T21:46:57.376Z,7.60
2019-03-10T21:49:24.661Z,7.60
2019-03-10T21:51:51.939Z,7.60
2019-03-10T21:54:19.323Z,7.60
2019-03-10T21:56:46.596Z,7.50
2019-03-10T21:59:13.982Z,7.50
2019-03-10T22:01:41.357Z,7.30
2019-03-10T22:04:08.682Z,7.20
2019-03-10T22:06:35.950Z,7.10
2019-03-10T22:09:04.782Z,7.00
2019-03-10T22:11:32.184Z,6.80
2019-03-10T22:13:59.519Z,6.70
2019-03-10T22:16:26.923Z,6.60
2019-03-10T22:18:54.166Z,6.40
2019-03-10T22:21:21.457Z,6.30
2019-03-10T22:23:58.871Z,6.30
2019-03-10T22:26:17.976Z,6.30
2019-03-10T22:28:45.261Z,6.30
2019-03-10T22:31:12.651Z,6.30
2019-03-10T22:33:40.034Z,6.30
2019-03-10T22:36:07.349Z,6.30
2019-03-10T22:38:34.721Z,6.20
2019-03-10T22:41:01.958Z,6.00
2019-03-10T22:43:29.480Z,6.00
2019-03-10T22:45:56.863Z,6.00
2019-03-10T22:48:25.919Z,6.00
2019-03-10T22:50:53.111Z,6.00
2019-03-10T22:53:20.515Z,6.00
2019-03-10T22:55:47.889Z,6.10
2019-03-10T22:58:15.144Z,6.10
2019-03-10T23:00:50.482Z,6.10
2019-03-10T23:03:17.751Z,6.20
2019-03-10T23:05:45.071Z,6.20
2019-03-10T23:08:12.347Z,6.20
2019-03-10T23:10:39.723Z,6.10
2019-03-10T23:13:06.952Z,6.10
2019-03-10T23:15:34.252Z,6.10
2019-03-10T23:18:01.743Z,6.10
2019-03-10T23:20:28.992Z,6.10
2019-03-10T23:22:56.272Z,6.20
2019-03-10T23:25:23.501Z,6.20
2019-03-10T23:27:50.774Z,6.00
2019-03-10T23:30:18.165Z,5.90
2019-03-10T23:32:45.538Z,5.70
2019-03-10T23:35:12.877Z,5.60
2019-03-10T23:37:40.196Z,5.40
2019-03-10T23:40:08.275Z,5.20
2019-03-10T23:42:35.547Z,4.90
2019-03-10T23:45:03.425Z,4.80
2019-03-10T23:47:30.812Z,4.80
2019-03-10T23:49:58.207Z,4.60
2019-03-10T23:52:25.557Z,4.50
2019-03-10T23:54:52.905Z,4.40
2019-03-10T23:57:20.363Z,4.40
2019-03-10T23:59:47.725Z,4.30
